Time;durP1;ratioP1;P1;durP2;ratioP2;P2;SDS_P1;SDS_P2;PMS_P1;PMS_P2;Temp;Humidity;BMP_temperature;BMP_pressure;BME280_temperature;BME280_humidity;BME280_pressure;Samples;Min_cycle;Max_cycle;Signal;HPM_P1;HPM_P2
2023/06/26 00:02:06;;;;;;;5.90;3.90;;;;;;;-128.00;-1.00;-1.00;18487;303;7504547;-35
2023/06/26 00:04:31;;;;;;;3.50;2.70;;;;;;;-128.00;-1.00;-1.00;18449;288;7504818;-33
2023/06/26 00:06:57;;;;;;;2.90;2.50;;;;;;;-128.00;-1.00;-1.00;18508;288;7504591;-35
2023/06/26 00:09:23;;;;;;;9.40;3.00;;;;;;;-128.00;-1.00;-1.00;18884;295;7504421;-31
2023/06/26 00:11:49;;;;;;;3.80;2.90;;;;;;;-128.00;-1.00;-1.00;18871;294;7504341;-34
2023/06/26 00:14:15;;;;;;;7.70;4.90;;;;;;;-128.00;-1.00;-1.00;18899;318;7504584;-35
2023/06/26 00:16:42;;;;;;;6.90;4.90;;;;;;;-128.00;-1.00;-1.00;18868;295;7505070;-30
2023/06/26 00:19:08;;;;;;;5.70;3.30;;;;;;;-128.00;-1.00;-1.00;18486;339;7504466;-31
2023/06/26 00:21:34;;;;;;;4.00;3.50;;;;;;;-128.00;-1.00;-1.00;18886;295;7504776;-31
2023/06/26 00:24:01;;;;;;;5.20;4.10;;;;;;;-128.00;-1.00;-1.00;18874;295;7504875;-34
2023/06/26 00:26:27;;;;;;;4.00;2.90;;;;;;;-128.00;-1.00;-1.00;18845;335;7504440;-35
2023/06/26 00:28:53;;;;;;;7.30;4.60;;;;;;;-128.00;-1.00;-1.00;18892;339;7504187;-35
2023/06/26 00:31:19;;;;;;;5.40;4.50;;;;;;;-128.00;-1.00;-1.00;18885;294;7504794;-31
2023/06/26 00:33:45;;;;;;;4.20;3.40;;;;;;;-128.00;-1.00;-1.00;18854;295;7505439;-34
2023/06/26 00:36:12;;;;;;;7.90;4.80;;;;;;;-128.00;-1.00;-1.00;18933;295;7504793;-30
2023/06/26 01:19:26;;;;;;;5.80;4.60;;;;;;;-100.13;19.20;19885.59;19591;295;8046170;-35
2023/06/26 01:22:00;;;;;;;3.20;2.80;;;;;;;-128.00;-1.00;-1.00;18173;336;7506326;-35
2023/06/26 01:24:32;;;;;;;3.40;2.60;;;;;;;-128.00;-1.00;-1.00;18470;294;7504454;-35
2023/06/26 01:26:58;;;;;;;4.30;3.50;;;;;;;-128.00;-1.00;-1.00;18470;282;7505469;-31
2023/06/26 01:29:23;;;;;;;4.50;3.30;;;;;;;-128.00;-1.00;-1.00;18485;294;7504520;-35
2023/06/26 01:31:49;;;;;;;7.10;4.40;;;;;;;-128.00;-1.00;-1.00;18464;296;7505843;-32
2023/06/26 01:34:18;;;;;;;5.60;2.70;;;;;;;-128.00;-1.00;-1.00;18480;335;7505260;-31
2023/06/26 01:36:44;;;;;;;4.90;3.60;;;;;;;-128.00;-1.00;-1.00;18485;294;7506139;-35
2023/06/26 01:39:10;;;;;;;5.30;3.80;;;;;;;-128.00;-1.00;-1.00;18501;294;7505194;-31
2023/06/26 01:41:36;;;;;;;4.50;3.60;;;;;;;-128.00;-1.00;-1.00;18895;295;7505675;-34
2023/06/26 01:44:23;;;;;;;3.70;3.00;;;;;;;-128.00;-1.00;-1.00;18859;294;7504510;-31
2023/06/26 01:47:01;;;;;;;3.40;2.70;;;;;;;-128.00;-1.00;-1.00;18478;294;7504182;-31
2023/06/26 01:49:44;;;;;;;7.40;2.40;;;;;;;-128.00;-1.00;-1.00;18506;294;7504605;-31
2023/06/26 01:52:25;;;;;;;4.10;2.70;;;;;;;-128.00;-1.00;-1.00;18479;294;7506782;-35
2023/06/26 01:55:03;;;;;;;11.80;2.70;;;;;;;-128.00;-1.00;-1.00;18482;294;7507016;-31
2023/06/26 01:57:30;;;;;;;7.30;2.80;;;;;;;-128.00;-1.00;-1.00;18464;288;7505284;-31
2023/06/26 01:59:55;;;;;;;6.50;2.70;;;;;;;-128.00;-1.00;-1.00;18475;347;7504425;-35
2023/06/26 02:02:24;;;;;;;9.40;4.00;;;;;;;-128.00;-1.00;-1.00;18463;294;7504724;-31
2023/06/26 02:04:51;;;;;;;6.20;3.70;;;;;;;-128.00;-1.00;-1.00;18511;294;7504382;-31
2023/06/26 02:07:16;;;;;;;5.20;4.00;;;;;;;-128.00;-1.00;-1.00;18485;339;7504581;-35
2023/06/26 02:09:42;;;;;;;4.10;3.00;;;;;;;-128.00;-1.00;-1.00;18482;294;7505912;-31
2023/06/26 02:12:08;;;;;;;5.80;2.90;;;;;;;-128.00;-1.00;-1.00;18514;306;7506685;-35
2023/06/26 02:14:34;;;;;;;9.30;3.60;;;;;;;-128.00;-1.00;-1.00;18499;294;7504995;-35
2023/06/26 02:17:00;;;;;;;4.60;2.90;;;;;;;-128.00;-1.00;-1.00;18456;295;7505825;-34
2023/06/26 02:19:27;;;;;;;5.00;3.80;;;;;;;-128.00;-1.00;-1.00;18931;302;7504862;-31
2023/06/26 02:21:54;;;;;;;4.90;3.50;;;;;;;-128.00;-1.00;-1.00;18469;294;7505941;-32
2023/06/26 02:24:19;;;;;;;7.40;4.30;;;;;;;-128.00;-1.00;-1.00;18445;347;7504385;-34
2023/06/26 02:26:45;;;;;;;4.00;3.10;;;;;;;-128.00;-1.00;-1.00;18473;294;7505048;-32
2023/06/26 02:29:12;;;;;;;4.80;4.00;;;;;;;-128.00;-1.00;-1.00;18458;294;7505776;-35
2023/06/26 02:31:37;;;;;;;6.20;3.80;;;;;;;-128.00;-1.00;-1.00;18475;294;7504934;-31
2023/06/26 02:34:04;;;;;;;4.60;3.50;;;;;;;-128.00;-1.00;-1.00;18499;294;7504965;-32
2023/06/26 02:36:29;;;;;;;4.40;3.00;;;;;;;-128.00;-1.00;-1.00;18468;347;7504290;-31
2023/06/26 02:38:55;;;;;;;5.70;4.30;;;;;;;-128.00;-1.00;-1.00;18504;296;7505162;-31
2023/06/26 02:41:21;;;;;;;4.80;4.30;;;;;;;-128.00;-1.00;-1.00;18504;294;7506026;-35
2023/06/26 02:43:47;;;;;;;5.80;4.80;;;;;;;-128.00;-1.00;-1.00;18493;288;7505325;-31
2023/06/26 02:46:12;;;;;;;4.70;3.80;;;;;;;-128.00;-1.00;-1.00;18465;287;7504129;-31
2023/06/26 02:48:38;;;;;;;5.10;4.10;;;;;;;-128.00;-1.00;-1.00;18508;294;7506030;-35
2023/06/26 02:51:03;;;;;;;5.20;4.10;;;;;;;-128.00;-1.00;-1.00;18458;294;7506248;-31
2023/06/26 02:53:31;;;;;;;5.50;3.70;;;;;;;-128.00;-1.00;-1.00;18498;339;7504394;-31
2023/06/26 02:55:56;;;;;;;4.40;3.90;;;;;;;-128.00;-1.00;-1.00;18502;319;7505006;-34
2023/06/26 02:58:22;;;;;;;6.00;4.30;;;;;;;-128.00;-1.00;-1.00;18497;295;7504564;-35
2023/06/26 03:00:48;;;;;;;5.60;3.90;;;;;;;-128.00;-1.00;-1.00;18895;294;7504645;-31
2023/06/26 03:03:14;;;;;;;7.10;4.10;;;;;;;-128.00;-1.00;-1.00;18879;294;7504808;-35
2023/06/26 03:05:41;;;;;;;7.50;3.90;;;;;;;-128.00;-1.00;-1.00;18870;307;7505264;-31
2023/06/26 03:08:07;;;;;;;6.10;4.30;;;;;;;-128.00;-1.00;-1.00;18876;319;7504755;-31
2023/06/26 03:10:33;;;;;;;5.70;4.70;;;;;;;-128.00;-1.00;-1.00;18877;283;7505517;-31
2023/06/26 03:12:59;;;;;;;10.60;5.50;;;;;;;-128.00;-1.00;-1.00;18871;295;7504871;-35
2023/06/26 03:15:26;;;;;;;9.30;4.30;;;;;;;-128.00;-1.00;-1.00;18882;322;7505653;-33
2023/06/26 03:17:52;;;;;;;9.20;5.80;;;;;;;-128.00;-1.00;-1.00;18899;310;7504570;-31
2023/06/26 03:20:18;;;;;;;6.50;5.10;;;;;;;-128.00;-1.00;-1.00;18864;335;7504867;-33
2023/06/26 03:22:44;;;;;;;5.60;4.00;;;;;;;-128.00;-1.00;-1.00;18889;294;7504309;-31
2023/06/26 03:25:11;;;;;;;6.80;4.00;;;;;;;-128.00;-1.00;-1.00;18500;294;7505989;-32
2023/06/26 03:27:37;;;;;;;10.30;4.00;;;;;;;-128.00;-1.00;-1.00;18488;294;7505801;-32
2023/06/26 03:30:03;;;;;;;5.20;4.70;;;;;;;-128.00;-1.00;-1.00;18496;294;7505684;-32
2023/06/26 03:32:28;;;;;;;4.90;3.80;;;;;;;-128.00;-1.00;-1.00;18466;330;7504935;-32
2023/06/26 03:34:54;;;;;;;6.70;5.40;;;;;;;-128.00;-1.00;-1.00;18472;294;7505246;-32
2023/06/26 03:37:20;;;;;;;7.20;3.60;;;;;;;-128.00;-1.00;-1.00;18466;294;7504190;-36
2023/06/26 03:39:46;;;;;;;6.60;4.30;;;;;;;-128.00;-1.00;-1.00;18455;302;7505930;-32
2023/06/26 03:42:11;;;;;;;11.30;5.40;;;;;;;-128.00;-1.00;-1.00;18489;295;7505805;-35
2023/06/26 03:44:37;;;;;;;10.40;6.50;;;;;;;-128.00;-1.00;-1.00;18903;306;7504659;-35
2023/06/26 03:47:04;;;;;;;14.70;5.70;;;;;;;-128.00;-1.00;-1.00;18907;294;7504482;-35
2023/06/26 03:49:30;;;;;;;5.80;4.30;;;;;;;-128.00;-1.00;-1.00;18472;294;7504834;-33
2023/06/26 03:51:56;;;;;;;9.00;5.90;;;;;;;-128.00;-1.00;-1.00;18868;296;7504231;-35
2023/06/26 03:54:22;;;;;;;7.50;6.10;;;;;;;-128.00;-1.00;-1.00;18877;294;7504419;-32
2023/06/26 03:56:48;;;;;;;6.20;4.60;;;;;;;-128.00;-1.00;-1.00;18870;294;7504183;-31
2023/06/26 03:59:14;;;;;;;5.80;5.00;;;;;;;-128.00;-1.00;-1.00;18916;294;7504854;-35
2023/06/26 04:01:40;;;;;;;7.20;5.50;;;;;;;-128.00;-1.00;-1.00;18891;347;7505087;-35
2023/06/26 04:04:07;;;;;;;9.10;5.00;;;;;;;-128.00;-1.00;-1.00;18884;295;7505285;-35
2023/06/26 04:06:33;;;;;;;6.00;4.90;;;;;;;-128.00;-1.00;-1.00;18853;294;7504879;-33
2023/06/26 04:08:59;;;;;;;8.40;4.50;;;;;;;-128.00;-1.00;-1.00;18885;307;7504495;-36
2023/06/26 04:11:26;;;;;;;7.60;4.30;;;;;;;-128.00;-1.00;-1.00;18931;339;7505015;-35
2023/06/26 04:13:52;;;;;;;7.20;5.10;;;;;;;-128.00;-1.00;-1.00;18871;295;7505083;-36
2023/06/26 04:16:19;;;;;;;9.70;5.70;;;;;;;-128.00;-1.00;-1.00;18886;295;7504900;-36
2023/06/26 04:18:44;;;;;;;5.70;5.10;;;;;;;-128.00;-1.00;-1.00;18457;294;7504210;-32
2023/06/26 04:21:12;;;;;;;5.50;4.40;;;;;;;-128.00;-1.00;-1.00;18481;294;7506482;-32
2023/06/26 04:23:38;;;;;;;5.40;4.40;;;;;;;-128.00;-1.00;-1.00;18510;294;7506448;-36
2023/06/26 04:26:05;;;;;;;6.20;5.60;;;;;;;-128.00;-1.00;-1.00;18451;294;7505485;-36
2023/06/26 04:28:32;;;;;;;6.10;5.20;;;;;;;-128.00;-1.00;-1.00;18481;294;7504670;-32
2023/06/26 04:30:59;;;;;;;4.70;3.90;;;;;;;-128.00;-1.00;-1.00;18479;294;7504899;-33
2023/06/26 04:33:25;;;;;;;5.20;4.60;;;;;;;-128.00;-1.00;-1.00;18495;294;7504800;-36
2023/06/26 04:35:51;;;;;;;4.60;3.40;;;;;;;-128.00;-1.00;-1.00;18487;294;7504316;-36
2023/06/26 04:38:18;;;;;;;6.90;4.50;;;;;;;-128.00;-1.00;-1.00;18473;294;7505112;-36
2023/06/26 04:40:43;;;;;;;5.10;4.60;;;;;;;-128.00;-1.00;-1.00;18495;294;7506061;-35
2023/06/26 04:43:09;;;;;;;5.50;4.90;;;;;;;-128.00;-1.00;-1.00;18510;294;7505856;-36
2023/06/26 04:45:35;;;;;;;6.40;5.50;;;;;;;-128.00;-1.00;-1.00;18459;294;7506446;-36
2023/06/26 04:48:01;;;;;;;5.30;4.70;;;;;;;-128.00;-1.00;-1.00;18477;294;7505178;-33
2023/06/26 04:50:28;;;;;;;5.90;4.80;;;;;;;-128.00;-1.00;-1.00;18488;294;7504608;-32
2023/06/26 04:52:55;;;;;;;7.30;5.70;;;;;;;-128.00;-1.00;-1.00;18530;319;7504633;-37
2023/06/26 04:55:21;;;;;;;6.10;5.10;;;;;;;-128.00;-1.00;-1.00;18467;294;7505988;-35
2023/06/26 04:57:47;;;;;;;6.10;4.60;;;;;;;-128.00;-1.00;-1.00;18481;294;7504334;-33
2023/06/26 05:00:15;;;;;;;6.70;5.70;;;;;;;-128.00;-1.00;-1.00;18903;339;7504928;-35
2023/06/26 05:02:40;;;;;;;9.40;6.50;;;;;;;-128.00;-1.00;-1.00;18494;295;7505181;-35
2023/06/26 05:05:06;;;;;;;5.30;4.50;;;;;;;-128.00;-1.00;-1.00;18477;294;7504957;-32
2023/06/26 05:07:32;;;;;;;9.50;6.00;;;;;;;-128.00;-1.00;-1.00;18489;288;7504557;-32
2023/06/26 05:09:58;;;;;;;7.10;5.40;;;;;;;-128.00;-1.00;-1.00;18482;284;7504578;-31
2023/06/26 05:12:24;;;;;;;8.30;6.60;;;;;;;-128.00;-1.00;-1.00;18921;294;7504716;-32
2023/06/26 05:14:50;;;;;;;10.30;6.00;;;;;;;-128.00;-1.00;-1.00;18877;346;7505600;-35
2023/06/26 05:17:16;;;;;;;7.20;6.10;;;;;;;-128.00;-1.00;-1.00;18903;294;7505237;-36
2023/06/26 05:19:42;;;;;;;10.10;5.30;;;;;;;-128.00;-1.00;-1.00;18872;310;7505256;-36
2023/06/26 05:22:09;;;;;;;5.80;5.10;;;;;;;-128.00;-1.00;-1.00;18879;335;7504873;-35
2023/06/26 05:24:35;;;;;;;6.60;4.90;;;;;;;-128.00;-1.00;-1.00;18470;294;7504298;-37
2023/06/26 05:27:02;;;;;;;6.10;5.30;;;;;;;-128.00;-1.00;-1.00;18463;295;7504868;-36
2023/06/26 05:29:33;;;;;;;14.10;5.30;;;;;;;-128.00;-1.00;-1.00;18477;347;7504357;-32
2023/06/26 05:31:59;;;;;;;7.50;4.40;;;;;;;-128.00;-1.00;-1.00;18476;294;7504403;-32
2023/06/26 05:34:28;;;;;;;4.40;4.10;;;;;;;-128.00;-1.00;-1.00;18472;330;7504431;-32
2023/06/26 05:36:57;;;;;;;19.10;4.50;;;;;;;-128.00;-1.00;-1.00;18490;294;7506073;-32
2023/06/26 05:39:23;;;;;;;4.80;4.00;;;;;;;-128.00;-1.00;-1.00;18477;294;7504818;-31
2023/06/26 05:41:49;;;;;;;6.10;4.10;;;;;;;-128.00;-1.00;-1.00;18472;347;7504782;-31
2023/06/26 05:44:14;;;;;;;5.50;4.90;;;;;;;-128.00;-1.00;-1.00;18482;296;7504879;-31
2023/06/26 05:46:40;;;;;;;5.20;4.70;;;;;;;-128.00;-1.00;-1.00;18481;287;7506256;-32
2023/06/26 05:49:06;;;;;;;6.70;6.00;;;;;;;-128.00;-1.00;-1.00;18856;294;7504827;-32
2023/06/26 05:51:32;;;;;;;7.30;5.20;;;;;;;-128.00;-1.00;-1.00;18877;294;7505058;-35
2023/06/26 05:53:59;;;;;;;5.60;5.20;;;;;;;-128.00;-1.00;-1.00;18899;310;7504366;-32
2023/06/26 05:56:25;;;;;;;5.60;4.70;;;;;;;-128.00;-1.00;-1.00;18482;314;7505833;-35
2023/06/26 05:58:52;;;;;;;4.50;3.90;;;;;;;-128.00;-1.00;-1.00;18508;288;7504581;-32
2023/06/26 06:01:18;;;;;;;5.00;3.80;;;;;;;-128.00;-1.00;-1.00;18510;347;7504542;-36
2023/06/26 06:03:44;;;;;;;5.50;5.00;;;;;;;-128.00;-1.00;-1.00;18468;294;7504852;-33
2023/06/26 06:06:10;;;;;;;4.80;4.30;;;;;;;-128.00;-1.00;-1.00;18508;294;7506668;-32
2023/06/26 06:08:36;;;;;;;4.40;4.10;;;;;;;-128.00;-1.00;-1.00;18478;294;7505441;-36
2023/06/26 06:11:02;;;;;;;3.50;3.20;;;;;;;-128.00;-1.00;-1.00;18469;294;7504620;-36
2023/06/26 06:13:28;;;;;;;4.50;4.10;;;;;;;-128.00;-1.00;-1.00;18474;294;7504549;-33
2023/06/26 06:15:55;;;;;;;4.20;3.00;;;;;;;-128.00;-1.00;-1.00;18488;294;7504492;-36
2023/06/26 06:18:21;;;;;;;5.70;3.30;;;;;;;-128.00;-1.00;-1.00;18463;335;7506158;-32
2023/06/26 06:20:47;;;;;;;5.00;4.00;;;;;;;-128.00;-1.00;-1.00;18499;295;7505244;-33
2023/06/26 06:23:12;;;;;;;3.50;3.20;;;;;;;-128.00;-1.00;-1.00;18473;283;7506565;-33
2023/06/26 06:25:38;;;;;;;3.10;2.90;;;;;;;-128.00;-1.00;-1.00;18485;294;7505339;-32
2023/06/26 06:28:05;;;;;;;4.40;4.00;;;;;;;-128.00;-1.00;-1.00;18485;299;7505098;-32
2023/06/26 06:30:30;;;;;;;5.00;4.40;;;;;;;-128.00;-1.00;-1.00;18492;318;7504288;-32
2023/06/26 06:32:57;;;;;;;5.00;4.10;;;;;;;-128.00;-1.00;-1.00;18481;294;7506027;-32
2023/06/26 06:35:23;;;;;;;3.60;3.30;;;;;;;-128.00;-1.00;-1.00;18480;284;7505235;-32
2023/06/26 06:37:49;;;;;;;4.80;2.70;;;;;;;-128.00;-1.00;-1.00;18464;283;7504956;-36
2023/06/26 06:40:15;;;;;;;3.80;3.40;;;;;;;-128.00;-1.00;-1.00;18853;294;7504351;-32
2023/06/26 06:42:41;;;;;;;6.10;3.90;;;;;;;-128.00;-1.00;-1.00;18460;294;7506331;-36
2023/06/26 06:45:09;;;;;;;5.30;4.10;;;;;;;-128.00;-1.00;-1.00;18893;296;7504391;-36
2023/06/26 06:47:35;;;;;;;4.20;3.70;;;;;;;-128.00;-1.00;-1.00;18494;346;7505971;-35
2023/06/26 06:50:07;;;;;;;3.00;2.50;;;;;;;-128.00;-1.00;-1.00;18449;295;7504765;-36
2023/06/26 06:52:38;;;;;;;3.20;2.90;;;;;;;-128.00;-1.00;-1.00;18476;294;7507169;-31
2023/06/26 06:55:08;;;;;;;3.70;3.40;;;;;;;-128.00;-1.00;-1.00;18523;294;7505085;-32
2023/06/26 06:57:37;;;;;;;3.40;3.00;;;;;;;-128.00;-1.00;-1.00;18507;294;7504861;-36
2023/06/26 07:00:05;;;;;;;4.20;3.80;;;;;;;-128.00;-1.00;-1.00;18463;294;7504985;-32
2023/06/26 07:02:31;;;;;;;3.80;3.30;;;;;;;-128.00;-1.00;-1.00;18489;294;7504615;-32
2023/06/26 07:04:56;;;;;;;3.50;2.90;;;;;;;-128.00;-1.00;-1.00;18505;294;7504734;-32
2023/06/26 07:07:22;;;;;;;4.80;3.00;;;;;;;-128.00;-1.00;-1.00;18457;294;7504627;-32
2023/06/26 07:09:48;;;;;;;4.90;3.10;;;;;;;-128.00;-1.00;-1.00;18875;294;7504448;-35
2023/06/26 07:12:14;;;;;;;8.10;3.60;;;;;;;-128.00;-1.00;-1.00;18863;346;7504240;-35
2023/06/26 07:14:41;;;;;;;3.90;3.30;;;;;;;-128.00;-1.00;-1.00;18858;294;7505369;-32
2023/06/26 07:17:08;;;;;;;3.10;2.80;;;;;;;-128.00;-1.00;-1.00;18889;346;7505424;-32
2023/06/26 07:19:34;;;;;;;3.40;3.00;;;;;;;-128.00;-1.00;-1.00;18483;295;7505958;-36
2023/06/26 07:22:00;;;;;;;2.10;1.90;;;;;;;-128.00;-1.00;-1.00;18504;294;7505972;-33
2023/06/26 07:24:27;;;;;;;3.90;3.50;;;;;;;-128.00;-1.00;-1.00;18896;282;7506158;-36
2023/06/26 07:26:53;;;;;;;1.90;1.70;;;;;;;-128.00;-1.00;-1.00;18900;293;7504870;-36
2023/06/26 07:29:19;;;;;;;3.10;2.40;;;;;;;-128.00;-1.00;-1.00;18894;294;7504763;-32
2023/06/26 07:31:45;;;;;;;3.30;3.00;;;;;;;-128.00;-1.00;-1.00;18904;286;7505058;-35
2023/06/26 07:34:12;;;;;;;3.00;2.70;;;;;;;-128.00;-1.00;-1.00;18887;281;7505172;-35
2023/06/26 07:36:38;;;;;;;3.50;3.10;;;;;;;-128.00;-1.00;-1.00;18908;293;7506832;-33
2023/06/26 07:39:04;;;;;;;2.60;2.40;;;;;;;-128.00;-1.00;-1.00;18921;294;7505027;-36
2023/06/26 07:41:31;;;;;;;4.50;2.90;;;;;;;-128.00;-1.00;-1.00;18888;293;7504371;-33
2023/06/26 07:43:58;;;;;;;4.10;3.10;;;;;;;-128.00;-1.00;-1.00;18894;294;7504570;-36
2023/06/26 07:46:24;;;;;;;4.30;3.00;;;;;;;-128.00;-1.00;-1.00;18487;293;7505756;-33
2023/06/26 07:48:49;;;;;;;3.40;2.20;;;;;;;-128.00;-1.00;-1.00;18520;293;7504486;-35
2023/06/26 07:51:15;;;;;;;3.00;2.60;;;;;;;-128.00;-1.00;-1.00;18896;294;7504881;-32
2023/06/26 07:53:41;;;;;;;3.30;2.70;;;;;;;-128.00;-1.00;-1.00;18891;293;7505102;-36
2023/06/26 07:56:08;;;;;;;2.10;1.90;;;;;;;-128.00;-1.00;-1.00;18895;294;7504192;-36
2023/06/26 07:58:34;;;;;;;4.30;2.40;;;;;;;-128.00;-1.00;-1.00;18898;293;7505818;-36
2023/06/26 08:01:00;;;;;;;4.00;1.60;;;;;;;-128.00;-1.00;-1.00;18883;293;7504674;-36
2023/06/26 08:03:26;;;;;;;2.30;2.10;;;;;;;-128.00;-1.00;-1.00;18930;293;7505885;-36
2023/06/26 08:05:52;;;;;;;2.20;2.00;;;;;;;-128.00;-1.00;-1.00;18877;293;7504706;-34
2023/06/26 08:08:19;;;;;;;3.10;2.60;;;;;;;-128.00;-1.00;-1.00;20320;293;7504753;-33
2023/06/26 08:10:45;;;;;;;4.10;2.90;;;;;;;-128.00;-1.00;-1.00;18906;293;7504039;-33
2023/06/26 08:13:11;;;;;;;2.40;2.20;;;;;;;-128.00;-1.00;-1.00;18924;286;7504634;-33
2023/06/26 08:15:39;;;;;;;6.20;2.30;;;;;;;-128.00;-1.00;-1.00;20289;293;7504873;-36
2023/06/26 08:18:05;;;;;;;2.40;2.00;;;;;;;-128.00;-1.00;-1.00;19602;293;7504581;-30
2023/06/26 08:20:31;;;;;;;8.90;2.80;;;;;;;-128.00;-1.00;-1.00;18901;293;7505450;-32
2023/06/26 08:22:58;;;;;;;4.80;3.00;;;;;;;-128.00;-1.00;-1.00;18884;293;7504899;-35
2023/06/26 08:25:24;;;;;;;4.40;4.10;;;;;;;-128.00;-1.00;-1.00;18904;293;7504136;-32
2023/06/26 08:27:52;;;;;;;3.30;2.40;;;;;;;-128.00;-1.00;-1.00;20988;341;7505148;-32
2023/06/26 08:30:18;;;;;;;1.60;1.50;;;;;;;-128.00;-1.00;-1.00;18465;294;7504433;-32
2023/06/26 08:32:44;;;;;;;15.10;2.70;;;;;;;-128.00;-1.00;-1.00;18879;293;7504557;-32
2023/06/26 08:35:11;;;;;;;3.40;2.70;;;;;;;-128.00;-1.00;-1.00;23133;293;7504553;-35
2023/06/26 08:37:37;;;;;;;3.20;2.70;;;;;;;-128.00;-1.00;-1.00;18888;281;7504616;-35
2023/06/26 08:40:04;;;;;;;2.40;2.10;;;;;;;-128.00;-1.00;-1.00;18928;293;7504341;-31
2023/06/26 08:42:31;;;;;;;5.80;2.00;;;;;;;-128.00;-1.00;-1.00;18911;294;7505094;-32
2023/06/26 08:44:57;;;;;;;6.90;3.20;;;;;;;-128.00;-1.00;-1.00;22409;293;7504725;-32
2023/06/26 08:47:23;;;;;;;3.20;2.30;;;;;;;-128.00;-1.00;-1.00;19288;294;7504586;-35
2023/06/26 08:49:57;;;;;;;2.90;2.40;;;;;;;-128.00;-1.00;-1.00;19611;293;7505308;-36
2023/06/26 08:52:23;;;;;;;2.90;2.70;;;;;;;-128.00;-1.00;-1.00;18482;293;7505783;-36
2023/06/26 08:54:54;;;;;;;3.50;2.10;;;;;;;-128.00;-1.00;-1.00;18473;293;7504875;-35
2023/06/26 08:57:21;;;;;;;5.00;2.00;;;;;;;-128.00;-1.00;-1.00;18489;286;7504356;-36
2023/06/26 08:59:47;;;;;;;2.90;2.70;;;;;;;-128.00;-1.00;-1.00;18470;293;7506065;-32
2023/06/26 09:02:13;;;;;;;3.90;2.50;;;;;;;-128.00;-1.00;-1.00;18499;293;7505966;-32
2023/06/26 09:04:39;;;;;;;5.40;3.40;;;;;;;-128.00;-1.00;-1.00;18899;293;7504947;-32
2023/06/26 09:07:06;;;;;;;4.10;2.80;;;;;;;-128.00;-1.00;-1.00;18894;294;7504673;-33
2023/06/26 09:09:32;;;;;;;2.80;2.20;;;;;;;-128.00;-1.00;-1.00;18908;293;7506125;-36
2023/06/26 09:11:58;;;;;;;3.50;2.60;;;;;;;-128.00;-1.00;-1.00;18902;294;7505017;-36
2023/06/26 09:14:24;;;;;;;3.00;2.70;;;;;;;-128.00;-1.00;-1.00;18896;294;7504489;-36
2023/06/26 09:16:51;;;;;;;3.90;2.90;;;;;;;-128.00;-1.00;-1.00;18905;297;7504555;-32
2023/06/26 09:19:17;;;;;;;3.20;2.70;;;;;;;-128.00;-1.00;-1.00;18885;294;7504644;-32
2023/06/26 09:21:44;;;;;;;2.80;2.50;;;;;;;-128.00;-1.00;-1.00;18937;293;8100060;-33
2023/06/26 09:24:10;;;;;;;2.20;2.00;;;;;;;-128.00;-1.00;-1.00;18869;293;7504424;-36
2023/06/26 09:26:37;;;;;;;2.90;2.60;;;;;;;-128.00;-1.00;-1.00;18908;294;7504278;-36
2023/06/26 09:29:03;;;;;;;3.90;2.00;;;;;;;-128.00;-1.00;-1.00;18490;294;7505818;-32
2023/06/26 09:31:29;;;;;;;5.70;2.00;;;;;;;-128.00;-1.00;-1.00;18882;294;7505551;-32
2023/06/26 09:33:58;;;;;;;1.40;1.30;;;;;;;-128.00;-1.00;-1.00;18786;294;7504396;-36
2023/06/26 09:36:27;;;;;;;2.60;2.30;;;;;;;-128.00;-1.00;-1.00;20173;293;7504880;-32
2023/06/26 09:38:53;;;;;;;2.90;2.40;;;;;;;-128.00;-1.00;-1.00;18466;294;7504310;-32
2023/06/26 09:41:28;;;;;;;1.40;1.20;;;;;;;-128.00;-1.00;-1.00;78237;293;7106003;-37
2023/06/26 09:43:55;;;;;;;2.40;2.20;;;;;;;-128.00;-1.00;-1.00;98063;293;1004456;-34
2023/06/26 09:46:26;;;;;;;2.70;2.10;;;;;;;-128.00;-1.00;-1.00;98027;293;1003016;-35
2023/06/26 09:49:04;;;;;;;1.80;1.30;;;;;;;-128.00;-1.00;-1.00;98086;293;1002425;-32
2023/06/26 09:51:33;;;;;;;2.00;1.80;;;;;;;-128.00;-1.00;-1.00;98205;293;1003021;-35
2023/06/26 09:54:00;;;;;;;3.20;2.20;;;;;;;-128.00;-1.00;-1.00;28781;293;7504417;-32
2023/06/26 09:56:27;;;;;;;1.50;1.30;;;;;;;-128.00;-1.00;-1.00;90940;294;4503055;-34
2023/06/26 09:58:55;;;;;;;3.00;1.90;;;;;;;-128.00;-1.00;-1.00;98097;293;1004786;-31
2023/06/26 10:01:21;;;;;;;1.90;1.60;;;;;;;-128.00;-1.00;-1.00;97994;294;1002840;-35
2023/06/26 10:03:46;;;;;;;2.30;2.10;;;;;;;-128.00;-1.00;-1.00;97711;293;1003106;-34
2023/06/26 10:06:13;;;;;;;1.90;1.70;;;;;;;-128.00;-1.00;-1.00;22191;294;7504608;-36
2023/06/26 10:08:40;;;;;;;2.70;2.20;;;;;;;-128.00;-1.00;-1.00;19654;294;7505999;-36
2023/06/26 10:11:08;;;;;;;3.40;2.00;;;;;;;-128.00;-1.00;-1.00;18901;293;7504846;-35
2023/06/26 10:13:38;;;;;;;2.60;1.50;;;;;;;-128.00;-1.00;-1.00;18514;294;7505268;-32
2023/06/26 10:16:03;;;;;;;1.90;1.80;;;;;;;-128.00;-1.00;-1.00;18512;294;7506067;-35
2023/06/26 10:18:30;;;;;;;2.40;1.70;;;;;;;-128.00;-1.00;-1.00;18920;293;7504807;-36
2023/06/26 10:20:56;;;;;;;2.30;2.10;;;;;;;-128.00;-1.00;-1.00;18914;293;7505053;-32
2023/06/26 10:23:23;;;;;;;3.20;2.00;;;;;;;-128.00;-1.00;-1.00;18497;293;7504646;-32
2023/06/26 10:25:48;;;;;;;4.60;2.50;;;;;;;-128.00;-1.00;-1.00;18519;281;7504790;-31
2023/06/26 10:28:14;;;;;;;2.60;1.40;;;;;;;-128.00;-1.00;-1.00;74097;294;7504087;-34
2023/06/26 10:30:40;;;;;;;9.50;2.30;;;;;;;-128.00;-1.00;-1.00;98057;293;1003777;-36
2023/06/26 10:33:07;;;;;;;2.30;1.80;;;;;;;-128.00;-1.00;-1.00;98111;293;1003262;-35
2023/06/26 10:35:33;;;;;;;2.00;1.40;;;;;;;-128.00;-1.00;-1.00;89135;293;4503827;-35
2023/06/26 10:38:06;;;;;;;2.80;1.80;;;;;;;-128.00;-1.00;-1.00;27634;294;7505524;-30
2023/06/26 10:40:44;;;;;;;2.50;1.50;;;;;;;-128.00;-1.00;-1.00;35182;293;7504104;-35
2023/06/26 10:43:11;;;;;;;2.00;1.60;;;;;;;-128.00;-1.00;-1.00;98011;293;1003586;-31
2023/06/26 10:45:52;;;;;;;2.90;2.20;;;;;;;-128.00;-1.00;-1.00;98171;293;1003026;-34
2023/06/26 10:48:17;;;;;;;1.70;1.50;;;;;;;-128.00;-1.00;-1.00;98140;293;1003477;-34
2023/06/26 10:50:44;;;;;;;2.30;2.00;;;;;;;-128.00;-1.00;-1.00;98082;293;1003866;-34
2023/06/26 10:53:24;;;;;;;4.20;2.80;;;;;;;-128.00;-1.00;-1.00;98004;293;1004564;-34
2023/06/26 10:55:58;;;;;;;4.70;2.30;;;;;;;-128.00;-1.00;-1.00;98177;293;1004663;-35
2023/06/26 10:58:31;;;;;;;3.00;1.70;;;;;;;-128.00;-1.00;-1.00;98152;293;1003180;-31
2023/06/26 11:01:15;;;;;;;3.80;2.10;;;;;;;-128.00;-1.00;-1.00;47188;293;7503828;-32
2023/06/26 11:03:42;;;;;;;2.20;1.70;;;;;;;-128.00;-1.00;-1.00;18490;294;7504625;-32
2023/06/26 11:06:16;;;;;;;2.90;2.10;;;;;;;-128.00;-1.00;-1.00;18508;293;7504302;-36
2023/06/26 11:08:47;;;;;;;3.10;1.90;;;;;;;-128.00;-1.00;-1.00;18529;294;7504833;-32
2023/06/26 11:11:12;;;;;;;2.30;2.10;;;;;;;-128.00;-1.00;-1.00;41300;293;7505076;-31
2023/06/26 11:13:39;;;;;;;2.60;2.00;;;;;;;-128.00;-1.00;-1.00;67554;293;3241202;-31
2023/06/26 11:16:05;;;;;;;1.60;1.30;;;;;;;-128.00;-1.00;-1.00;98030;293;1005630;-30
2023/06/26 11:18:32;;;;;;;2.50;2.00;;;;;;;-128.00;-1.00;-1.00;97961;293;1003063;-32
2023/06/26 11:21:11;;;;;;;3.30;2.10;;;;;;;-128.00;-1.00;-1.00;98062;293;1003435;-35
2023/06/26 11:23:37;;;;;;;3.90;2.70;;;;;;;-128.00;-1.00;-1.00;38098;286;7504740;-32
2023/06/26 11:26:15;;;;;;;6.20;2.60;;;;;;;-128.00;-1.00;-1.00;18493;293;7505071;-33
2023/06/26 11:28:56;;;;;;;1.80;1.70;;;;;;;-128.00;-1.00;-1.00;18515;293;7504356;-36
2023/06/26 11:31:32;;;;;;;3.60;1.60;;;;;;;-128.00;-1.00;-1.00;18510;293;7505956;-36
2023/06/26 11:34:00;;;;;;;2.30;2.10;;;;;;;-128.00;-1.00;-1.00;18505;294;7504291;-36
2023/06/26 11:36:26;;;;;;;2.70;2.40;;;;;;;-128.00;-1.00;-1.00;18510;293;7505375;-35
2023/06/26 11:38:53;;;;;;;3.80;2.40;;;;;;;-128.00;-1.00;-1.00;18497;293;7504419;-35
2023/06/26 11:41:19;;;;;;;2.90;2.40;;;;;;;-128.00;-1.00;-1.00;18490;293;7504931;-32
2023/06/26 11:43:45;;;;;;;2.60;2.20;;;;;;;-128.00;-1.00;-1.00;18902;286;7505550;-35
2023/06/26 11:46:11;;;;;;;3.20;2.20;;;;;;;-128.00;-1.00;-1.00;18897;293;7505921;-32
2023/06/26 11:48:38;;;;;;;3.20;2.90;;;;;;;-128.00;-1.00;-1.00;18877;294;7505411;-32
2023/06/26 11:51:05;;;;;;;2.00;1.40;;;;;;;-128.00;-1.00;-1.00;18468;294;7504889;-35
2023/06/26 11:53:31;;;;;;;2.80;2.10;;;;;;;-128.00;-1.00;-1.00;18452;293;7506020;-35
2023/06/26 11:55:56;;;;;;;2.20;2.00;;;;;;;-128.00;-1.00;-1.00;18443;347;7504544;-35
2023/06/26 11:58:22;;;;;;;1.60;1.50;;;;;;;-128.00;-1.00;-1.00;18472;294;7504412;-31
2023/06/26 12:00:48;;;;;;;5.30;2.50;;;;;;;-128.00;-1.00;-1.00;18497;293;7505883;-35
2023/06/26 12:03:15;;;;;;;3.20;2.90;;;;;;;-128.00;-1.00;-1.00;18507;294;7505984;-32
2023/06/26 12:05:41;;;;;;;2.90;1.60;;;;;;;-128.00;-1.00;-1.00;18499;293;7505059;-37
2023/06/26 12:08:07;;;;;;;2.70;2.30;;;;;;;-128.00;-1.00;-1.00;18480;294;7504764;-37
2023/06/26 12:10:33;;;;;;;2.40;2.20;;;;;;;-128.00;-1.00;-1.00;18471;293;7506106;-37
2023/06/26 12:13:01;;;;;;;3.00;2.70;;;;;;;-128.00;-1.00;-1.00;18495;293;7504606;-33
2023/06/26 12:15:26;;;;;;;1.70;1.20;;;;;;;-128.00;-1.00;-1.00;39835;293;7506036;-36